Time;durP1;ratioP1;P1;durP2;ratioP2;P2;SDS_P1;SDS_P2;PMS_P1;PMS_P2;Temp;Humidity;BMP_temperature;BMP_pressure;BME280_temperature;BME280_humidity;BME280_pressure;Samples;Min_cycle;Max_cycle;Signal;HPM_P1;HPM_P2
2020/12/07 00:00:50;;;;;;;17.57;13.03;;;;;;;2.26;76.02;98330.91;2152578;83;21115;-78
2020/12/07 00:03:51;;;;;;;18.17;12.87;;;;;;;2.19;75.55;98336.25;2152444;83;21119;-79
2020/12/07 00:06:52;;;;;;;17.47;12.77;;;;;;;2.14;75.86;98327.48;2152836;83;21146;-79
2020/12/07 00:09:53;;;;;;;17.50;11.50;;;;;;;2.11;75.89;98318.36;2152485;82;21091;-79
2020/12/07 00:12:54;;;;;;;16.13;12.67;;;;;;;2.10;76.12;98324.33;2152849;83;21126;-79
2020/12/07 00:15:55;;;;;;;17.27;13.07;;;;;;;2.08;76.25;98323.40;2152162;83;21139;-79
2020/12/07 00:18:56;;;;;;;16.33;11.57;;;;;;;2.02;76.72;98320.19;2152096;83;21122;-80
2020/12/07 00:21:57;;;;;;;16.77;11.83;;;;;;;2.01;76.46;98322.70;2152714;83;21118;-81
2020/12/07 00:24:58;;;;;;;21.07;13.50;;;;;;;1.97;76.30;98323.01;2152481;83;21123;-78
2020/12/07 00:28:00;;;;;;;19.43;13.00;;;;;;;1.96;76.06;98310.95;2152714;82;21115;-79
2020/12/07 00:31:01;;;;;;;21.03;13.43;;;;;;;1.97;76.39;98318.27;2152470;83;21146;-79
2020/12/07 00:34:02;;;;;;;15.43;11.37;;;;;;;1.93;76.38;98308.68;2152402;83;21119;-79
2020/12/07 00:37:03;;;;;;;16.67;13.33;;;;;;;1.93;76.38;98308.68;2155871;82;21441;-79
2020/12/07 00:40:04;;;;;;;16.93;11.73;;;;;;;1.91;76.50;98317.22;2164627;82;21082;-79
2020/12/07 00:43:05;;;;;;;19.17;12.40;;;;;;;1.85;76.69;98311.84;2162736;82;21094;-80
2020/12/07 00:46:06;;;;;;;18.50;12.93;;;;;;;1.80;76.54;98310.80;2162821;82;21405;-79
2020/12/07 00:49:07;;;;;;;17.80;11.40;;;;;;;1.77;76.67;98307.23;2162791;82;21107;-80
2020/12/07 00:52:08;;;;;;;17.43;11.77;;;;;;;1.77;76.72;98309.39;2162698;82;21095;-79
2020/12/07 00:55:09;;;;;;;18.13;13.43;;;;;;;1.72;77.18;98298.43;2162439;82;21261;-77
2020/12/07 00:58:10;;;;;;;21.20;13.43;;;;;;;1.67;77.15;98304.69;2162545;82;21261;-78
2020/12/07 01:01:11;;;;;;;18.53;12.83;;;;;;;1.64;77.08;98302.41;2162756;82;21134;-79
2020/12/07 01:04:12;;;;;;;16.80;11.63;;;;;;;1.64;77.31;98296.86;2162492;82;21080;-79
2020/12/07 01:07:13;;;;;;;16.17;11.73;;;;;;;1.67;77.24;98294.81;2162843;82;21111;-79
2020/12/07 01:10:14;;;;;;;20.83;12.40;;;;;;;1.66;77.37;98281.07;2162282;82;21233;-79
2020/12/07 01:13:15;;;;;;;16.93;13.40;;;;;;;1.62;77.09;98283.06;2162345;82;21257;-81
2020/12/07 01:16:16;;;;;;;22.50;12.30;;;;;;;1.63;76.94;98295.11;2162553;82;21111;-79
2020/12/07 01:19:17;;;;;;;15.10;10.67;;;;;;;1.64;77.14;98296.86;2162357;82;21520;-78
2020/12/07 01:22:19;;;;;;;17.07;12.37;;;;;;;1.65;77.07;98300.30;2162231;82;21226;-78
2020/12/07 01:25:22;;;;;;;15.97;11.57;;;;;;;1.67;77.18;98294.40;2162629;82;21250;-78
2020/12/07 01:28:23;;;;;;;19.30;11.53;;;;;;;1.68;76.94;98294.87;2162835;82;21127;-79
2020/12/07 01:31:24;;;;;;;15.03;11.20;;;;;;;1.65;77.13;98287.44;2162615;82;21520;-79
2020/12/07 01:34:25;;;;;;;17.03;11.47;;;;;;;1.61;77.08;98283.88;2162665;82;21242;-80
2020/12/07 01:37:26;;;;;;;17.07;11.70;;;;;;;1.57;76.91;98273.01;2173732;82;21288;-79
2020/12/07 01:40:27;;;;;;;14.40;11.33;;;;;;;1.56;77.06;98275.11;2162343;82;21237;-79
2020/12/07 01:43:28;;;;;;;12.90;10.17;;;;;;;1.56;76.87;98277.69;2162826;82;21114;-79
2020/12/07 01:46:29;;;;;;;16.83;11.63;;;;;;;1.51;77.37;98267.22;2162832;82;21122;-79
2020/12/07 01:49:30;;;;;;;15.53;11.17;;;;;;;1.42;77.73;98264.71;2162868;82;21142;-80
2020/12/07 01:52:32;;;;;;;15.03;11.27;;;;;;;1.38;77.69;98264.13;2162868;82;21404;-80
2020/12/07 01:55:33;;;;;;;18.17;11.70;;;;;;;1.34;77.63;98275.11;2162667;82;21237;-79
2020/12/07 01:58:34;;;;;;;18.10;11.33;;;;;;;1.37;77.44;98277.80;2162520;82;21567;-80
2020/12/07 02:01:35;;;;;;;17.30;12.27;;;;;;;1.40;77.44;98257.34;2162592;82;21264;-79
2020/12/07 02:04:36;;;;;;;15.20;11.17;;;;;;;1.42;77.28;98251.84;2162444;82;21409;-80
2020/12/07 02:07:37;;;;;;;16.13;11.07;;;;;;;1.44;77.37;98246.36;2162420;82;21110;-78
2020/12/07 02:10:38;;;;;;;15.57;11.20;;;;;;;1.45;77.16;98242.97;2162644;82;21250;-79
2020/12/07 02:13:39;;;;;;;15.13;12.13;;;;;;;1.44;77.42;98234.78;2162688;82;21250;-79
2020/12/07 02:16:40;;;;;;;15.40;10.27;;;;;;;1.41;77.36;98230.81;2162844;82;21563;-80
2020/12/07 02:19:41;;;;;;;15.27;10.37;;;;;;;1.39;77.10;98234.61;2162574;82;21269;-78
2020/12/07 02:22:42;;;;;;;12.20;8.93;;;;;;;1.37;77.23;98235.37;2162761;82;21229;-79
2020/12/07 02:25:43;;;;;;;14.00;10.30;;;;;;;1.37;77.22;98227.66;2162669;81;21277;-79
2020/12/07 02:28:44;;;;;;;14.83;9.80;;;;;;;1.37;77.09;98237.53;2162955;82;21103;-78
2020/12/07 02:31:48;;;;;;;14.07;10.77;;;;;;;1.35;77.04;98229.30;2162391;82;21257;-77
2020/12/07 02:34:49;;;;;;;15.40;10.80;;;;;;;1.32;77.16;98229.17;2162647;81;21234;-78
2020/12/07 02:37:53;;;;;;;14.90;9.30;;;;;;;1.31;77.03;98219.71;2173147;82;21575;-80
2020/12/07 02:40:54;;;;;;;12.43;10.07;;;;;;;1.31;76.92;98227.42;2173046;82;21110;-81
2020/12/07 02:43:55;;;;;;;12.60;10.30;;;;;;;1.34;76.95;98241.68;2174411;82;21079;-78
2020/12/07 02:46:56;;;;;;;15.43;10.70;;;;;;;1.37;76.81;98248.23;2162677;82;21107;-79
2020/12/07 02:49:57;;;;;;;15.43;10.80;;;;;;;1.42;76.68;98245.02;2162466;82;21135;-79
2020/12/07 02:52:58;;;;;;;13.80;10.77;;;;;;;1.49;76.49;98266.70;2162548;82;21253;-79
2020/12/07 02:55:59;;;;;;;11.10;9.37;;;;;;;1.58;76.33;98267.04;2162607;82;21189;-81
2020/12/07 02:59:00;;;;;;;14.00;10.30;;;;;;;1.59;76.18;98262.36;2162388;82;21123;-82
2020/12/07 03:02:01;;;;;;;18.03;10.83;;;;;;;1.57;76.07;98274.30;2162543;82;21495;-80
2020/12/07 03:05:02;;;;;;;12.27;9.00;;;;;;;1.59;76.07;98281.66;2162652;82;21241;-81
2020/12/07 03:08:03;;;;;;;12.67;10.00;;;;;;;1.64;75.84;98272.41;2162461;82;21233;-79
2020/12/07 03:11:05;;;;;;;13.43;9.50;;;;;;;1.66;75.71;98275.05;2162419;82;21265;-81
2020/12/07 03:14:06;;;;;;;14.23;10.67;;;;;;;1.67;75.70;98271.25;2162416;82;21245;-79
2020/12/07 03:17:07;;;;;;;12.53;9.40;;;;;;;1.64;75.52;98268.55;2162540;82;21150;-79
2020/12/07 03:20:08;;;;;;;15.50;9.87;;;;;;;1.59;75.63;98259.80;2162454;82;21532;-81
2020/12/07 03:23:11;;;;;;;10.37;8.93;;;;;;;1.56;75.68;98251.55;2162395;82;21222;-78
2020/12/07 03:26:12;;;;;;;10.63;9.03;;;;;;;1.52;75.61;98247.11;2162653;82;21240;-80
2020/12/07 03:29:13;;;;;;;10.80;7.90;;;;;;;1.47;75.60;98239.63;2162148;82;21229;-80
2020/12/07 03:32:14;;;;;;;12.80;8.70;;;;;;;1.41;75.61;98230.81;2161749;82;21139;-80
2020/12/07 03:35:15;;;;;;;13.97;9.80;;;;;;;1.33;75.74;98230.93;2162927;82;21397;-79
2020/12/07 03:38:16;;;;;;;10.50;7.87;;;;;;;1.27;75.72;98236.30;2173076;82;21532;-80
2020/12/07 03:41:17;;;;;;;12.00;9.07;;;;;;;1.16;76.12;98244.02;2173213;82;21126;-80
2020/12/07 03:44:18;;;;;;;13.30;8.83;;;;;;;1.08;76.07;98243.25;2172806;82;21091;-81
2020/12/07 03:47:19;;;;;;;10.03;8.23;;;;;;;1.03;76.28;98253.76;2172915;82;21122;-79
2020/12/07 03:50:20;;;;;;;12.20;9.23;;;;;;;1.04;76.21;98266.67;2172934;82;21237;-79
2020/12/07 03:53:21;;;;;;;12.07;9.87;;;;;;;1.05;76.23;98262.41;2172919;82;21420;-82
2020/12/07 03:56:22;;;;;;;12.43;9.40;;;;;;;1.06;78.54;98265.03;2174133;82;21119;-79
2020/12/07 03:59:23;;;;;;;12.20;9.40;;;;;;;3.72;84.84;98268.75;2169352;82;21122;-78
2020/12/07 04:02:26;;;;;;;12.43;8.03;;;;;;;6.44;81.53;98267.27;2162559;81;21249;-78
2020/12/07 04:05:30;;;;;;;11.00;8.77;;;;;;;8.61;74.44;98257.98;2162047;82;21237;-81
2020/12/07 04:08:30;;;;;;;10.17;8.27;;;;;;;8.54;63.34;98254.44;2162478;82;21138;-81
2020/12/07 04:11:31;;;;;;;45.33;11.30;;;;;;;6.27;60.63;98253.98;2162631;82;21252;-80
2020/12/07 04:14:35;;;;;;;11.40;9.77;;;;;;;4.57;64.43;98260.83;2163037;82;21095;-80
2020/12/07 04:17:36;;;;;;;10.10;8.30;;;;;;;3.55;66.17;98249.31;2162637;82;21261;-80
2020/12/07 04:20:37;;;;;;;9.33;7.77;;;;;;;2.82;68.06;98255.59;2162639;82;21373;-78
2020/12/07 04:23:38;;;;;;;21.80;13.03;;;;;;;2.35;69.29;98253.56;2162511;82;21099;-80
2020/12/07 04:26:39;;;;;;;11.20;9.37;;;;;;;2.05;70.49;98243.48;2160644;82;21233;-80
2020/12/07 04:29:41;;;;;;;12.13;9.77;;;;;;;1.73;71.49;98243.17;2160713;81;21131;-78
2020/12/07 04:32:42;;;;;;;12.57;8.40;;;;;;;1.50;71.89;98240.16;2161636;82;21380;-80
2020/12/07 04:35:43;;;;;;;14.93;9.93;;;;;;;1.39;72.87;98246.59;2162111;82;21277;-79
2020/12/07 04:38:44;;;;;;;13.63;9.37;;;;;;;1.28;73.06;98244.48;2161545;82;21556;-79
2020/12/07 04:41:45;;;;;;;15.73;9.37;;;;;;;1.22;73.59;98237.83;2160641;82;21106;-81
2020/12/07 04:44:46;;;;;;;14.37;9.73;;;;;;;1.16;74.08;98234.14;2160659;82;21115;-80
2020/12/07 04:47:47;;;;;;;17.13;9.57;;;;;;;1.07;74.43;98232.09;2160377;82;21306;-82
2020/12/07 04:50:48;;;;;;;12.87;8.77;;;;;;;1.02;74.15;98232.32;2159647;82;21099;-81
2020/12/07 04:53:49;;;;;;;12.33;9.00;;;;;;;0.95;74.75;98240.61;2159273;82;21079;-81
2020/12/07 04:56:50;;;;;;;12.07;8.90;;;;;;;0.88;74.40;98233.47;2159845;82;21313;-80
2020/12/07 04:59:51;;;;;;;12.40;8.67;;;;;;;0.82;74.78;98231.91;2159938;82;21288;-84
2020/12/07 05:02:52;;;;;;;11.53;8.93;;;;;;;0.77;74.99;98215.44;2159665;82;21158;-81
2020/12/07 05:05:53;;;;;;;12.10;9.53;;;;;;;0.72;75.34;98219.10;2159415;82;21290;-80
2020/12/07 05:08:55;;;;;;;16.00;8.17;;;;;;;0.66;76.18;98208.58;2160518;82;21504;-80
2020/12/07 05:11:57;;;;;;;15.00;9.70;;;;;;;0.78;79.41;98209.48;2160875;82;21245;-80
2020/12/07 05:14:58;;;;;;;11.37;8.10;;;;;;;1.32;74.98;98224.03;2160681;82;21112;-79
2020/12/07 05:17:59;;;;;;;12.80;10.17;;;;;;;1.12;74.95;98219.01;2160195;82;21591;-81
2020/12/07 05:21:01;;;;;;;10.70;9.43;;;;;;;0.96;75.22;98196.10;2159954;82;21269;-82
2020/12/07 05:24:02;;;;;;;13.57;9.77;;;;;;;0.84;75.17;98197.75;2159492;82;21308;-80
2020/12/07 05:27:03;;;;;;;11.40;9.37;;;;;;;0.79;75.57;98220.22;2159718;82;21277;-80
2020/12/07 05:30:17;;;;;;;14.13;11.50;;;;;;;0.73;75.88;98211.86;2160309;82;21245;-81
2020/12/07 05:33:14;;;;;;;11.07;9.00;;;;;;;0.72;75.87;98199.84;2159933;82;21138;-80
2020/12/07 05:36:15;;;;;;;13.33;9.87;;;;;;;0.65;76.43;98187.56;2157446;81;21119;-81
2020/12/07 05:39:16;;;;;;;15.17;11.20;;;;;;;0.60;76.75;98200.22;2150262;82;21127;-80
2020/12/07 05:42:17;;;;;;;12.50;9.80;;;;;;;0.58;76.44;98206.11;2149584;82;21092;-80
2020/12/07 05:45:18;;;;;;;31.57;11.43;;;;;;;0.56;76.45;98220.17;2149703;82;21118;-80
2020/12/07 05:48:19;;;;;;;13.50;10.53;;;;;;;0.53;76.40;98211.06;2149639;83;21146;-81
2020/12/07 05:51:20;;;;;;;12.83;9.57;;;;;;;0.47;77.27;98204.39;2150221;83;21122;-79
2020/12/07 05:54:21;;;;;;;10.03;7.70;;;;;;;0.43;77.28;98206.77;2149681;82;21197;-79
2020/12/07 05:57:22;;;;;;;11.93;9.40;;;;;;;0.39;77.47;98210.91;2148321;83;21920;-79
2020/12/07 06:00:23;;;;;;;13.97;10.33;;;;;;;0.37;77.22;98215.10;2148449;83;21273;-79
2020/12/07 06:03:24;;;;;;;12.13;10.17;;;;;;;0.37;77.05;98209.09;2148904;83;21103;-82
2020/12/07 06:06:25;;;;;;;13.50;10.37;;;;;;;0.36;77.61;98209.50;2149889;83;21249;-81
2020/12/07 06:09:26;;;;;;;13.17;9.77;;;;;;;0.36;77.54;98213.75;2149771;83;21115;-79
2020/12/07 06:12:27;;;;;;;23.10;9.37;;;;;;;0.34;77.40;98218.83;2149686;82;21249;-80
2020/12/07 06:15:28;;;;;;;15.37;11.20;;;;;;;0.35;77.77;98221.86;2149287;82;21111;-80
2020/12/07 06:18:29;;;;;;;19.97;9.63;;;;;;;0.37;77.65;98227.94;2149271;83;21171;-80
2020/12/07 06:21:30;;;;;;;17.27;11.53;;;;;;;0.41;77.43;98222.12;2150366;83;21139;-79
2020/12/07 06:24:31;;;;;;;12.80;10.63;;;;;;;0.43;77.89;98215.35;2150613;83;21131;-79
2020/12/07 06:27:33;;;;;;;15.67;9.80;;;;;;;0.44;77.81;98220.95;2149609;83;21192;-79
2020/12/07 06:30:33;;;;;;;13.37;10.37;;;;;;;0.46;77.76;98226.16;2149713;82;21131;-80
2020/12/07 06:33:35;;;;;;;11.43;7.97;;;;;;;0.51;77.23;98234.52;2150154;82;21412;-80
2020/12/07 06:36:36;;;;;;;18.87;12.43;;;;;;;0.52;77.46;98240.53;2150761;82;21325;-79
2020/12/07 06:39:37;;;;;;;13.13;10.20;;;;;;;0.53;77.27;98226.47;2150172;83;21268;-80
2020/12/07 06:42:38;;;;;;;12.93;10.17;;;;;;;0.58;77.20;98233.08;2150461;83;21111;-80
2020/12/07 06:45:39;;;;;;;16.67;11.37;;;;;;;0.58;77.18;98230.10;2149665;83;21111;-81
2020/12/07 06:48:40;;;;;;;13.93;9.90;;;;;;;0.62;77.28;98231.98;2149712;83;21123;-81
2020/12/07 06:51:44;;;;;;;16.67;9.80;;;;;;;0.64;77.24;98235.48;2148870;83;21946;-80
2020/12/07 06:55:05;;;;;;;19.60;11.63;;;;;;;0.68;77.05;98235.61;2149107;83;21127;-80
2020/12/07 06:58:06;;;;;;;13.97;11.00;;;;;;;0.74;76.93;98221.73;2149443;83;21278;-79
2020/12/07 07:01:07;;;;;;;16.67;10.47;;;;;;;0.76;76.60;98243.22;2150118;83;21119;-81
2020/12/07 07:04:08;;;;;;;16.57;11.00;;;;;;;0.80;76.52;98249.83;2149626;83;21111;-81
2020/12/07 07:07:09;;;;;;;13.87;10.37;;;;;;;0.85;76.48;98256.44;2149364;83;21119;-79
2020/12/07 07:10:10;;;;;;;13.47;10.40;;;;;;;0.89;76.39;98245.50;2149107;83;21080;-81
2020/12/07 07:13:11;;;;;;;15.83;9.10;;;;;;;0.89;76.45;98245.09;2150159;83;21126;-82
2020/12/07 07:16:12;;;;;;;29.80;17.90;;;;;;;0.94;76.35;98255.55;2150132;83;21147;-82
2020/12/07 07:19:13;;;;;;;15.37;10.10;;;;;;;1.04;76.12;98241.37;2149307;83;21143;-80
2020/12/07 07:22:15;;;;;;;14.33;10.47;;;;;;;1.10;75.91;98247.63;2149097;83;21111;-80
2020/12/07 07:25:26;;;;;;;13.23;10.50;;;;;;;1.18;75.74;98251.78;2148407;83;21123;-81
2020/12/07 07:28:25;;;;;;;13.40;10.37;;;;;;;1.27;75.46;98256.00;2148246;83;21249;-80
2020/12/07 07:31:26;;;;;;;16.23;10.37;;;;;;;1.30;75.24;98248.81;2149056;83;21110;-80
2020/12/07 07:34:27;;;;;;;13.77;9.70;;;;;;;1.35;75.19;98248.17;2149351;83;21238;-78
2020/12/07 07:37:28;;;;;;;14.23;10.30;;;;;;;1.46;74.96;98249.86;2153587;82;21158;-82
2020/12/07 07:40:29;;;;;;;14.00;10.10;;;;;;;1.50;74.64;98241.44;2162199;82;21134;-81
2020/12/07 07:43:30;;;;;;;16.00;11.00;;;;;;;1.53;74.51;98256.98;2160179;82;21118;-82
2020/12/07 07:46:33;;;;;;;19.00;11.53;;;;;;;1.59;74.52;98257.22;2159636;82;21753;-82
2020/12/07 07:49:47;;;;;;;19.53;12.30;;;;;;;1.68;74.24;98255.40;2160128;82;21438;-81
2020/12/07 08:16:14;;;;;;;16.90;9.97;;;;;;;2.45;71.39;98261.20;2100101;85;21282;-80
2020/12/07 08:19:15;;;;;;;16.60;11.83;;;;;;;2.40;71.03;98271.34;2100180;85;21313;-80
2020/12/07 08:22:17;;;;;;;17.57;11.47;;;;;;;2.45;71.44;98269.80;2101373;85;21224;-81
2020/12/07 08:25:18;;;;;;;14.33;11.03;;;;;;;2.49;71.40;98269.08;2100928;85;21472;-80
2020/12/07 08:28:21;;;;;;;15.40;10.90;;;;;;;2.54;71.22;98269.23;2100447;85;21345;-82
2020/12/07 08:31:22;;;;;;;23.13;12.93;;;;;;;2.62;70.78;98274.68;2101454;85;21271;-80
2020/12/07 08:34:23;;;;;;;15.90;10.97;;;;;;;2.67;70.98;98283.44;2100397;85;21175;-80
2020/12/07 08:37:24;;;;;;;19.93;12.57;;;;;;;2.74;70.58;98289.27;2099129;85;21170;-81
2020/12/07 08:40:26;;;;;;;15.43;11.90;;;;;;;2.66;70.29;98282.98;2091517;85;21296;-81
2020/12/07 08:43:27;;;;;;;16.67;11.27;;;;;;;2.57;70.32;98288.66;2091120;85;21621;-83
2020/12/07 08:46:28;;;;;;;14.00;10.30;;;;;;;2.49;70.40;98283.66;2090756;85;21295;-82
2020/12/07 08:49:29;;;;;;;17.07;12.43;;;;;;;2.41;70.75;98291.53;2091731;85;21287;-80
2020/12/07 08:52:30;;;;;;;20.77;11.03;;;;;;;2.41;70.86;98304.41;2114062;82;21258;-79
2020/12/07 08:55:31;;;;;;;14.77;10.73;;;;;;;2.41;70.71;98300.55;2156231;82;21564;-80
2020/12/07 08:58:32;;;;;;;18.73;10.93;;;;;;;2.51;71.37;98306.08;2157332;82;21289;-81
2020/12/07 09:01:33;;;;;;;16.93;10.43;;;;;;;2.56;70.32;98299.38;2158843;82;21245;-81
2020/12/07 09:04:34;;;;;;;17.60;12.80;;;;;;;2.54;70.49;98306.18;2158953;82;21090;-80
2020/12/07 09:07:35;;;;;;;15.87;11.77;;;;;;;2.52;70.51;98311.70;2157821;82;21114;-82
2020/12/07 09:10:36;;;;;;;18.03;12.50;;;;;;;2.49;70.17;98298.70;2158388;82;21154;-79
2020/12/07 09:13:39;;;;;;;16.13;11.10;;;;;;;2.47;70.40;98304.22;2158248;82;21248;-80
2020/12/07 09:16:40;;;;;;;15.27;11.33;;;;;;;2.53;70.62;98308.30;2159360;82;21142;-80
2020/12/07 09:19:41;;;;;;;15.70;11.10;;;;;;;2.52;70.26;98310.41;2159139;82;21122;-82
2020/12/07 09:22:42;;;;;;;16.77;10.97;;;;;;;2.48;69.85;98306.38;2158777;82;21257;-80
2020/12/07 09:25:43;;;;;;;18.73;11.57;;;;;;;2.96;78.33;98300.75;2158601;82;21558;-81
2020/12/07 09:28:44;;;;;;;15.93;11.47;;;;;;;6.60;71.45;98275.36;2159405;82;21229;-81
2020/12/07 09:31:45;;;;;;;19.17;11.17;;;;;;;8.66;65.35;98268.43;2159033;82;21248;-81
2020/12/07 09:34:46;;;;;;;13.20;10.60;;;;;;;7.99;55.21;98268.50;2159022;82;21273;-81
2020/12/07 09:37:47;;;;;;;16.43;10.87;;;;;;;6.31;58.28;98280.42;2155708;82;21623;-81
2020/12/07 09:40:48;;;;;;;15.53;11.47;;;;;;;5.13;60.22;98272.58;2148724;83;21245;-83
2020/12/07 09:43:49;;;;;;;18.07;11.53;;;;;;;4.30;62.30;98271.27;2149335;83;21088;-82
2020/12/07 09:46:52;;;;;;;29.33;11.20;;;;;;;3.81;63.59;98267.73;2149415;83;21123;-80
2020/12/07 09:49:53;;;;;;;31.27;13.57;;;;;;;3.45;64.69;98257.16;2150159;82;21154;-80
2020/12/07 09:52:54;;;;;;;17.50;11.43;;;;;;;3.23;65.68;98268.52;2149087;83;21091;-82
2020/12/07 09:55:56;;;;;;;15.67;10.60;;;;;;;3.14;66.20;98258.80;2149091;83;21147;-79
2020/12/07 09:58:58;;;;;;;15.97;11.07;;;;;;;3.18;66.50;98264.51;2149239;83;21274;-80
2020/12/07 10:01:59;;;;;;;23.43;12.63;;;;;;;3.20;66.52;98264.14;2149044;82;21119;-83
2020/12/07 10:05:01;;;;;;;16.97;11.50;;;;;;;3.17;66.68;98256.72;2148641;83;21086;-81
2020/12/07 10:08:03;;;;;;;18.87;11.73;;;;;;;3.19;66.77;98252.08;2148767;83;21123;-81
2020/12/07 10:11:04;;;;;;;21.10;11.13;;;;;;;3.23;66.77;98259.91;2149264;82;21275;-80
2020/12/07 10:14:05;;;;;;;15.40;10.90;;;;;;;3.25;66.66;98264.70;2149801;82;21107;-83
2020/12/07 10:17:06;;;;;;;21.43;11.10;;;;;;;3.35;66.70;98271.89;2150232;83;21487;-79
2020/12/07 10:20:07;;;;;;;18.20;11.70;;;;;;;3.44;66.52;98271.77;2150097;83;21161;-81
2020/12/07 10:23:08;;;;;;;19.10;11.83;;;;;;;3.49;66.12;98274.52;2150509;83;21115;-80
2020/12/07 10:26:09;;;;;;;24.50;15.80;;;;;;;3.53;66.37;98267.33;2150047;83;21256;-80
2020/12/07 10:29:10;;;;;;;18.10;12.87;;;;;;;3.56;66.43;98268.71;2150844;83;21115;-80
2020/12/07 10:32:11;;;;;;;15.90;11.43;;;;;;;3.59;66.19;98264.94;2150749;83;21084;-80
2020/12/07 10:35:12;;;;;;;17.87;11.50;;;;;;;3.64;65.98;98277.56;2149609;83;21273;-81
2020/12/07 10:38:14;;;;;;;13.10;10.10;;;;;;;3.58;65.61;98270.05;2149361;82;21282;-80
2020/12/07 10:41:15;;;;;;;19.63;12.70;;;;;;;3.51;65.74;98278.02;2148672;82;21095;-81
2020/12/07 10:44:16;;;;;;;14.60;11.33;;;;;;;3.41;65.68;98265.22;2149507;82;21131;-80
2020/12/07 10:47:17;;;;;;;13.43;10.43;;;;;;;3.41;66.00;98266.92;2149802;83;21457;-83
2020/12/07 10:50:18;;;;;;;60.60;30.40;;;;;;;3.41;65.85;98268.22;2149493;82;21130;-79
2020/12/07 10:53:19;;;;;;;17.00;11.80;;;;;;;3.39;65.86;98267.29;2150107;82;21079;-79
2020/12/07 10:56:20;;;;;;;17.43;11.37;;;;;;;3.44;66.21;98266.60;2149703;83;21091;-81
2020/12/07 10:59:21;;;;;;;49.73;12.87;;;;;;;3.55;65.93;98273.41;2149673;83;21484;-79
2020/12/07 11:02:22;;;;;;;16.67;11.43;;;;;;;3.57;65.74;98278.62;2148794;82;21095;-79
2020/12/07 11:05:24;;;;;;;16.47;10.40;;;;;;;3.54;65.88;98282.40;2148422;82;21104;-79
2020/12/07 11:08:32;;;;;;;18.07;11.70;;;;;;;3.51;65.86;98293.50;2148803;82;21130;-78
2020/12/07 11:11:30;;;;;;;14.53;10.23;;;;;;;3.55;66.01;98304.38;2148678;83;21277;-79
2020/12/07 11:14:32;;;;;;;17.53;11.23;;;;;;;3.60;65.69;98286.45;2149885;82;21079;-80
2020/12/07 11:17:35;;;;;;;15.17;11.00;;;;;;;3.59;65.91;98274.38;2150174;82;21158;-83
2020/12/07 11:20:36;;;;;;;15.97;11.03;;;;;;;3.65;66.00;98285.77;2149298;82;21107;-80
2020/12/07 11:23:39;;;;;;;15.10;11.23;;;;;;;3.69;65.77;98275.11;2149272;82;21234;-81
2020/12/07 11:26:40;;;;;;;16.10;11.13;;;;;;;3.69;65.84;98266.08;2149813;82;21438;-83
2020/12/07 11:29:41;;;;;;;15.00;10.83;;;;;;;3.69;65.89;98264.38;2149867;82;21417;-82
2020/12/07 11:32:42;;;;;;;25.23;12.17;;;;;;;3.66;65.67;98263.41;2149537;83;21266;-82
2020/12/07 11:35:43;;;;;;;16.20;12.07;;;;;;;3.68;65.88;98248.42;2149823;82;21115;-80
2020/12/07 11:38:48;;;;;;;16.90;11.40;;;;;;;3.66;65.09;98249.21;2161079;82;21150;-80
2020/12/07 11:41:57;;;;;;;22.83;11.80;;;;;;;3.65;65.48;98247.46;2171902;82;21137;-82
2020/12/07 11:44:55;;;;;;;19.87;12.23;;;;;;;3.64;65.27;98258.20;2159460;82;21526;-80
2020/12/07 11:47:56;;;;;;;16.37;11.70;;;;;;;3.65;65.49;98263.83;2159997;82;21456;-81
2020/12/07 11:50:57;;;;;;;16.63;10.93;;;;;;;3.62;65.31;98255.98;2159186;82;21249;-82
2020/12/07 11:53:58;;;;;;;16.40;11.40;;;;;;;3.50;65.37;98255.21;2159680;82;21122;-80
2020/12/07 11:56:59;;;;;;;36.03;23.13;;;;;;;3.44;65.81;98255.41;2159588;82;21600;-80
2020/12/07 12:00:00;;;;;;;18.13;11.27;;;;;;;3.39;65.82;98250.52;2159311;82;21083;-79
2020/12/07 12:03:01;;;;;;;24.87;12.60;;;;;;;3.38;66.00;98251.35;2159234;82;21241;-80
2020/12/07 12:06:02;;;;;;;23.80;12.37;;;;;;;3.43;66.31;98261.39;2159623;82;21560;-83
2020/12/07 12:09:04;;;;;;;19.83;11.57;;;;;;;3.44;66.05;98266.60;2160127;82;21123;-81
2020/12/07 12:12:05;;;;;;;18.43;11.67;;;;;;;3.40;66.20;98254.44;2159870;82;21130;-81
2020/12/07 12:15:06;;;;;;;21.30;11.50;;;;;;;3.38;66.25;98247.06;2159319;82;21142;-80
2020/12/07 12:18:07;;;;;;;18.93;10.87;;;;;;;3.37;66.26;98248.31;2159596;82;21586;-80
2020/12/07 12:21:08;;;;;;;18.13;10.67;;;;;;;3.39;66.44;98248.81;2160062;82;21241;-78
2020/12/07 12:24:09;;;;;;;18.07;11.60;;;;;;;3.39;66.38;98258.27;2160192;82;21139;-79
2020/12/07 12:27:10;;;;;;;18.57;11.80;;;;;;;3.35;66.31;98254.71;2159849;82;21628;-79
2020/12/07 12:30:11;;;;;;;20.97;12.17;;;;;;;3.36;66.39;98255.17;2159477;82;21225;-78
2020/12/07 12:33:13;;;;;;;18.20;11.37;;;;;;;3.35;66.35;98268.03;2159021;82;21123;-78
2020/12/07 12:36:14;;;;;;;20.00;12.43;;;;;;;3.36;66.33;98267.20;2159144;82;21138;-78
2020/12/07 12:39:15;;;;;;;19.97;12.17;;;;;;;3.37;66.29;98267.66;2158895;82;21277;-78
2020/12/07 12:42:16;;;;;;;16.43;11.83;;;;;;;3.38;66.53;98265.54;2149772;82;21241;-78
2020/12/07 12:45:17;;;;;;;53.30;13.67;;;;;;;3.41;66.36;98267.80;2148910;83;21237;-79
2020/12/07 12:48:18;;;;;;;16.00;11.00;;;;;;;3.42;66.52;98264.39;2149044;83;21274;-77
2020/12/07 12:51:19;;;;;;;16.70;10.77;;;;;;;3.50;66.47;98273.27;2147740;83;21293;-78
2020/12/07 12:54:20;;;;;;;18.53;11.53;;;;;;;3.52;66.09;98274.61;2148965;83;21620;-78
2020/12/07 12:57:22;;;;;;;22.40;12.90;;;;;;;3.49;66.02;98269.36;2148469;83;21286;-78
2020/12/07 13:00:23;;;;;;;16.20;11.57;;;;;;;3.47;66.36;98261.98;2148506;83;21260;-78
2020/12/07 13:03:24;;;;;;;20.20;12.17;;;;;;;3.42;66.32;98264.81;2147736;83;21261;-78
2020/12/07 13:06:25;;;;;;;19.77;11.27;;;;;;;3.36;66.37;98273.23;2146654;83;21980;-80
2020/12/07 13:09:26;;;;;;;18.93;11.43;;;;;;;3.33;65.78;98286.45;2146614;83;21257;-78
2020/12/07 13:12:27;;;;;;;19.33;11.70;;;;;;;3.29;66.06;98278.16;2147777;82;21139;-77
2020/12/07 13:15:29;;;;;;;19.40;10.37;;;;;;;3.18;65.94;98267.50;2148332;83;21075;-79
2020/12/07 13:18:37;;;;;;;21.17;12.37;;;;;;;3.16;65.90;98264.00;2148816;83;21554;-78
2020/12/07 13:21:39;;;;;;;18.03;10.67;;;;;;;3.89;66.34;98255.91;2147651;83;21289;-77
2020/12/07 13:24:43;;;;;;;18.77;11.87;;;;;;;3.64;64.20;98249.17;2149892;82;21154;-78
2020/12/07 13:27:50;;;;;;;17.67;11.10;;;;;;;3.24;64.45;98245.77;2148821;83;21127;-76
2020/12/07 13:30:50;;;;;;;14.73;9.23;;;;;;;3.01;65.14;98266.97;2149854;82;21158;-79
2020/12/07 13:33:51;;;;;;;26.80;10.33;;;;;;;2.92;65.29;98274.41;2148449;82;21143;-78
2020/12/07 13:36:52;;;;;;;14.60;9.03;;;;;;;2.89;65.52;98292.35;2148433;83;21258;-77
2020/12/07 13:39:54;;;;;;;17.20;10.60;;;;;;;2.86;65.53;98290.55;2147340;82;21923;-76
2020/12/07 13:42:55;;;;;;;20.43;11.20;;;;;;;2.80;65.76;98295.50;2147617;83;21123;-75
2020/12/07 13:45:56;;;;;;;20.93;11.37;;;;;;;2.74;65.90;98294.42;2149204;83;21135;-76
2020/12/07 13:48:57;;;;;;;111.53;61.20;;;;;;;2.68;65.98;98297.67;2149965;83;21127;-76
2020/12/07 13:51:58;;;;;;;19.47;12.17;;;;;;;2.60;66.00;98311.98;2148881;83;21227;-77
2020/12/07 13:54:59;;;;;;;15.90;10.43;;;;;;;2.53;66.12;98322.46;2149422;83;21119;-77
2020/12/07 13:58:00;;;;;;;19.67;11.00;;;;;;;2.51;66.37;98315.09;2148910;83;21285;-77
2020/12/07 14:01:02;;;;;;;17.50;11.33;;;;;;;2.48;66.52;98305.09;2149417;83;21119;-77
2020/12/07 14:04:10;;;;;;;17.20;11.27;;;;;;;2.41;66.49;98304.41;2148751;82;21478;-76
2020/12/07 14:07:06;;;;;;;22.07;12.13;;;;;;;2.33;66.65;98300.28;2146764;83;21555;-77
2020/12/07 14:10:07;;;;;;;18.43;11.27;;;;;;;2.30;66.91;98298.89;2147693;83;21118;-77
2020/12/07 14:13:08;;;;;;;20.27;12.50;;;;;;;2.28;66.93;98284.20;2147615;83;21288;-77
2020/12/07 14:16:09;;;;;;;17.07;11.13;;;;;;;2.21;67.13;98295.98;2148852;83;21717;-76
2020/12/07 14:19:13;;;;;;;29.90;12.50;;;;;;;2.13;66.99;98281.55;2149029;83;21322;-77
2020/12/07 14:42:30;;;;;;;18.60;11.17;;;;;;;1.54;68.11;98301.19;2088875;85;21483;-77
2020/12/07 14:45:36;;;;;;;18.50;11.77;;;;;;;1.55;68.00;98302.94;2091396;85;21570;-77
2020/12/07 14:48:36;;;;;;;18.33;12.10;;;;;;;1.58;68.00;98304.34;2091782;85;21380;-77